Terminal Aerodrome Forecast
Issued by NWS

Home | Current Version | Previous Version | Text Only | Print | Product List | Glossary On
Versions: 1 2 3 4 5 6 7 8 9 10 11 12 13 14 15 16
000
FTAK31 PAJN 250500
TAFAGY
TAF
PAGY 250527Z 2506/2606 VRB03KT P6SM OVC050
     FM250900 VRB02KT P6SM -SN OVC040
     FM251300 VRB05KT 5SM -SN BR OVC035
     FM252300 21007KT P6SM -SNRA OVC050
      AMD LTD TO CLD VIS AND WIND=

USA.gov is the U.S. government's official web portal to all federal, state and local government web resources and services.